sensor_id;sensor_type;location;lat;lon;timestamp;P1;durP1;ratioP1;P2;durP2;ratioP2
41167;SDS011;26906;45.658;9.272;2023-06-14T05:35:56;17.45;;;13.55;;
41167;SDS011;26906;45.658;9.272;2023-06-14T05:38:22;15.20;;;12.82;;
41167;SDS011;26906;45.658;9.272;2023-06-14T05:40:47;18.35;;;13.48;;
41167;SDS011;26906;45.658;9.272;2023-06-14T05:43:13;18.73;;;13.63;;
41167;SDS011;26906;45.658;9.272;2023-06-14T05:45:39;15.45;;;12.85;;
41167;SDS011;26906;45.658;9.272;2023-06-14T05:48:05;15.45;;;12.65;;
41167;SDS011;26906;45.658;9.272;2023-06-14T05:50:31;16.67;;;12.95;;
41167;SDS011;26906;45.658;9.272;2023-06-14T05:52:57;13.75;;;12.00;;
41167;SDS011;26906;45.658;9.272;2023-06-14T05:55:23;14.60;;;12.05;;
41167;SDS011;26906;45.658;9.272;2023-06-14T05:57:49;14.38;;;12.88;;
41167;SDS011;26906;45.658;9.272;2023-06-14T06:00:21;13.30;;;12.00;;
41167;SDS011;26906;45.658;9.272;2023-06-14T06:02:47;14.73;;;11.63;;
41167;SDS011;26906;45.658;9.272;2023-06-14T06:05:15;14.73;;;12.85;;
41167;SDS011;26906;45.658;9.272;2023-06-14T06:07:41;14.27;;;12.82;;
41167;SDS011;26906;45.658;9.272;2023-06-14T06:10:09;13.82;;;12.43;;
41167;SDS011;26906;45.658;9.272;2023-06-14T06:12:35;17.33;;;13.40;;
41167;SDS011;26906;45.658;9.272;2023-06-14T06:15:01;15.07;;;13.13;;
41167;SDS011;26906;45.658;9.272;2023-06-14T06:17:30;14.52;;;12.40;;
41167;SDS011;26906;45.658;9.272;2023-06-14T06:19:56;14.35;;;12.85;;
41167;SDS011;26906;45.658;9.272;2023-06-14T06:22:21;13.35;;;11.95;;
41167;SDS011;26906;45.658;9.272;2023-06-14T06:24:47;13.75;;;12.20;;
41167;SDS011;26906;45.658;9.272;2023-06-14T06:27:13;13.27;;;11.88;;
41167;SDS011;26906;45.658;9.272;2023-06-14T06:29:39;16.13;;;12.52;;
41167;SDS011;26906;45.658;9.272;2023-06-14T06:32:04;17.65;;;11.02;;
41167;SDS011;26906;45.658;9.272;2023-06-14T06:34:30;12.68;;;11.38;;
41167;SDS011;26906;45.658;9.272;2023-06-14T06:36:56;12.65;;;10.40;;
41167;SDS011;26906;45.658;9.272;2023-06-14T06:39:22;13.55;;;10.60;;
41167;SDS011;26906;45.658;9.272;2023-06-14T06:41:47;12.02;;;10.73;;
41167;SDS011;26906;45.658;9.272;2023-06-14T06:44:17;12.05;;;9.95;;
41167;SDS011;26906;45.658;9.272;2023-06-14T06:46:48;12.40;;;10.05;;
41167;SDS011;26906;45.658;9.272;2023-06-14T06:49:13;10.45;;;9.43;;
41167;SDS011;26906;45.658;9.272;2023-06-14T06:51:42;11.77;;;9.98;;
41167;SDS011;26906;45.658;9.272;2023-06-14T06:54:08;11.60;;;9.88;;
41167;SDS011;26906;45.658;9.272;2023-06-14T06:56:35;13.32;;;10.60;;
41167;SDS011;26906;45.658;9.272;2023-06-14T06:59:01;13.05;;;9.40;;
41167;SDS011;26906;45.658;9.272;2023-06-14T07:01:26;9.18;;;8.13;;
41167;SDS011;26906;45.658;9.272;2023-06-14T07:03:54;9.45;;;8.45;;
41167;SDS011;26906;45.658;9.272;2023-06-14T07:06:20;9.35;;;7.25;;
41167;SDS011;26906;45.658;9.272;2023-06-14T07:08:46;9.20;;;7.43;;
41167;SDS011;26906;45.658;9.272;2023-06-14T07:11:14;8.80;;;6.63;;
41167;SDS011;26906;45.658;9.272;2023-06-14T07:13:40;5.47;;;4.70;;
41167;SDS011;26906;45.658;9.272;2023-06-14T07:16:06;5.43;;;4.57;;
41167;SDS011;26906;45.658;9.272;2023-06-14T07:18:31;6.38;;;4.53;;
41167;SDS011;26906;45.658;9.272;2023-06-14T07:20:57;4.82;;;4.30;;
41167;SDS011;26906;45.658;9.272;2023-06-14T07:23:23;7.43;;;4.45;;
41167;SDS011;26906;45.658;9.272;2023-06-14T07:25:49;5.53;;;4.20;;
41167;SDS011;26906;45.658;9.272;2023-06-14T07:28:15;8.80;;;4.80;;
41167;SDS011;26906;45.658;9.272;2023-06-14T07:30:43;6.90;;;4.78;;
41167;SDS011;26906;45.658;9.272;2023-06-14T07:33:08;7.10;;;5.18;;
41167;SDS011;26906;45.658;9.272;2023-06-14T07:35:35;9.60;;;4.63;;
41167;SDS011;26906;45.658;9.272;2023-06-14T07:38:01;5.50;;;5.00;;
41167;SDS011;26906;45.658;9.272;2023-06-14T07:40:26;7.60;;;4.75;;
41167;SDS011;26906;45.658;9.272;2023-06-14T07:42:52;5.70;;;4.93;;
41167;SDS011;26906;45.658;9.272;2023-06-14T07:45:19;6.03;;;5.13;;
41167;SDS011;26906;45.658;9.272;2023-06-14T07:47:45;7.97;;;5.28;;
41167;SDS011;26906;45.658;9.272;2023-06-14T07:50:11;11.98;;;5.53;;
41167;SDS011;26906;45.658;9.272;2023-06-14T07:52:38;5.30;;;4.75;;
41167;SDS011;26906;45.658;9.272;2023-06-14T07:55:04;13.85;;;5.80;;
41167;SDS011;26906;45.658;9.272;2023-06-14T07:57:30;5.55;;;5.05;;
41167;SDS011;26906;45.658;9.272;2023-06-14T07:59:56;5.20;;;4.70;;
41167;SDS011;26906;45.658;9.272;2023-06-14T08:02:22;5.45;;;4.95;;
41167;SDS011;26906;45.658;9.272;2023-06-14T08:04:48;5.63;;;4.97;;
41167;SDS011;26906;45.658;9.272;2023-06-14T08:07:14;11.05;;;6.50;;
41167;SDS011;26906;45.658;9.272;2023-06-14T08:09:40;8.32;;;6.40;;
41167;SDS011;26906;45.658;9.272;2023-06-14T08:12:06;10.43;;;5.43;;
41167;SDS011;26906;45.658;9.272;2023-06-14T08:14:35;7.30;;;6.10;;
41167;SDS011;26906;45.658;9.272;2023-06-14T08:17:01;8.75;;;5.90;;
41167;SDS011;26906;45.658;9.272;2023-06-14T08:19:27;8.60;;;5.45;;
41167;SDS011;26906;45.658;9.272;2023-06-14T08:21:53;7.53;;;5.68;;
41167;SDS011;26906;45.658;9.272;2023-06-14T08:24:23;7.40;;;5.97;;
41167;SDS011;26906;45.658;9.272;2023-06-14T08:26:55;6.70;;;5.05;;
41167;SDS011;26906;45.658;9.272;2023-06-14T08:29:21;6.18;;;4.97;;
41167;SDS011;26906;45.658;9.272;2023-06-14T08:31:47;5.85;;;5.25;;
41167;SDS011;26906;45.658;9.272;2023-06-14T08:34:13;7.03;;;5.53;;
41167;SDS011;26906;45.658;9.272;2023-06-14T08:36:38;10.70;;;4.95;;
41167;SDS011;26906;45.658;9.272;2023-06-14T08:39:04;8.80;;;4.45;;
41167;SDS011;26906;45.658;9.272;2023-06-14T08:41:30;8.38;;;5.03;;
41167;SDS011;26906;45.658;9.272;2023-06-14T08:43:57;9.63;;;4.90;;
41167;SDS011;26906;45.658;9.272;2023-06-14T08:46:25;9.38;;;5.80;;
41167;SDS011;26906;45.658;9.272;2023-06-14T08:48:52;9.90;;;6.05;;
41167;SDS011;26906;45.658;9.272;2023-06-14T08:51:24;7.80;;;5.68;;
41167;SDS011;26906;45.658;9.272;2023-06-14T08:53:52;27.23;;;13.48;;
41167;SDS011;26906;45.658;9.272;2023-06-14T08:56:25;7.60;;;5.55;;
41167;SDS011;26906;45.658;9.272;2023-06-14T08:58:55;14.20;;;5.30;;
41167;SDS011;26906;45.658;9.272;2023-06-14T09:01:23;7.60;;;5.63;;
41167;SDS011;26906;45.658;9.272;2023-06-14T09:03:49;11.93;;;6.03;;
41167;SDS011;26906;45.658;9.272;2023-06-14T09:06:16;8.15;;;5.25;;
41167;SDS011;26906;45.658;9.272;2023-06-14T09:08:45;6.82;;;5.97;;
41167;SDS011;26906;45.658;9.272;2023-06-14T09:11:13;7.50;;;5.43;;
41167;SDS011;26906;45.658;9.272;2023-06-14T09:13:39;6.10;;;5.20;;
41167;SDS011;26906;45.658;9.272;2023-06-14T09:16:06;7.88;;;6.43;;
41167;SDS011;26906;45.658;9.272;2023-06-14T09:18:43;10.20;;;6.18;;
41167;SDS011;26906;45.658;9.272;2023-06-14T09:21:13;7.55;;;5.80;;
41167;SDS011;26906;45.658;9.272;2023-06-14T09:23:40;8.50;;;5.90;;
41167;SDS011;26906;45.658;9.272;2023-06-14T09:26:07;8.07;;;6.38;;
41167;SDS011;26906;45.658;9.272;2023-06-14T09:28:33;9.43;;;6.07;;
41167;SDS011;26906;45.658;9.272;2023-06-14T09:31:00;6.72;;;5.82;;
41167;SDS011;26906;45.658;9.272;2023-06-14T09:33:26;7.88;;;6.05;;
41167;SDS011;26906;45.658;9.272;2023-06-14T09:35:54;8.68;;;6.25;;
41167;SDS011;26906;45.658;9.272;2023-06-14T09:38:20;7.13;;;5.45;;
41167;SDS011;26906;45.658;9.272;2023-06-14T09:40:46;9.20;;;6.55;;
41167;SDS011;26906;45.658;9.272;2023-06-14T09:43:11;7.82;;;5.97;;
41167;SDS011;26906;45.658;9.272;2023-06-14T09:45:40;9.25;;;6.30;;
41167;SDS011;26906;45.658;9.272;2023-06-14T09:48:07;8.45;;;6.20;;
41167;SDS011;26906;45.658;9.272;2023-06-14T09:50:34;10.75;;;6.65;;
41167;SDS011;26906;45.658;9.272;2023-06-14T09:53:06;6.93;;;5.65;;
41167;SDS011;26906;45.658;9.272;2023-06-14T09:55:36;6.15;;;5.32;;
41167;SDS011;26906;45.658;9.272;2023-06-14T09:58:04;5.18;;;4.72;;
41167;SDS011;26906;45.658;9.272;2023-06-14T10:00:32;5.88;;;5.18;;
41167;SDS011;26906;45.658;9.272;2023-06-14T10:03:12;5.57;;;4.32;;
41167;SDS011;26906;45.658;9.272;2023-06-14T10:05:39;6.88;;;4.88;;
41167;SDS011;26906;45.658;9.272;2023-06-14T10:08:10;6.32;;;4.80;;
41167;SDS011;26906;45.658;9.272;2023-06-14T10:10:40;6.60;;;4.78;;
41167;SDS011;26906;45.658;9.272;2023-06-14T10:13:07;5.85;;;4.53;;
41167;SDS011;26906;45.658;9.272;2023-06-14T10:18:30;9.15;;;6.35;;
41167;SDS011;26906;45.658;9.272;2023-06-14T10:21:15;7.93;;;6.00;;
41167;SDS011;26906;45.658;9.272;2023-06-14T10:23:42;10.43;;;5.10;;
41167;SDS011;26906;45.658;9.272;2023-06-14T10:26:17;9.38;;;5.32;;
41167;SDS011;26906;45.658;9.272;2023-06-14T10:28:56;7.80;;;6.00;;
41167;SDS011;26906;45.658;9.272;2023-06-14T10:31:39;10.43;;;6.35;;
41167;SDS011;26906;45.658;9.272;2023-06-14T10:34:12;6.72;;;5.15;;
41167;SDS011;26906;45.658;9.272;2023-06-14T10:37:06;6.40;;;5.75;;
41167;SDS011;26906;45.658;9.272;2023-06-14T10:39:42;8.23;;;5.68;;
41167;SDS011;26906;45.658;9.272;2023-06-14T10:42:12;9.20;;;5.07;;
41167;SDS011;26906;45.658;9.272;2023-06-14T10:44:42;10.07;;;6.07;;
41167;SDS011;26906;45.658;9.272;2023-06-14T10:49:51;8.50;;;5.88;;
41167;SDS011;26906;45.658;9.272;2023-06-14T10:52:32;7.30;;;5.78;;
41167;SDS011;26906;45.658;9.272;2023-06-14T10:57:36;7.63;;;5.03;;
41167;SDS011;26906;45.658;9.272;2023-06-14T11:00:11;8.73;;;5.28;;
41167;SDS011;26906;45.658;9.272;2023-06-14T11:05:52;8.23;;;6.95;;
41167;SDS011;26906;45.658;9.272;2023-06-14T11:11:20;6.00;;;5.30;;
41167;SDS011;26906;45.658;9.272;2023-06-14T11:13:48;4.50;;;4.10;;
41167;SDS011;26906;45.658;9.272;2023-06-14T11:16:14;5.82;;;5.00;;
41167;SDS011;26906;45.658;9.272;2023-06-14T11:18:41;4.97;;;4.47;;
41167;SDS011;26906;45.658;9.272;2023-06-14T11:21:09;6.40;;;5.30;;
41167;SDS011;26906;45.658;9.272;2023-06-14T11:23:35;5.85;;;4.97;;
41167;SDS011;26906;45.658;9.272;2023-06-14T11:26:01;7.78;;;4.93;;
41167;SDS011;26906;45.658;9.272;2023-06-14T11:28:40;8.02;;;3.70;;
41167;SDS011;26906;45.658;9.272;2023-06-14T11:31:06;4.20;;;3.78;;
41167;SDS011;26906;45.658;9.272;2023-06-14T11:33:33;5.72;;;3.90;;
41167;SDS011;26906;45.658;9.272;2023-06-14T11:36:01;10.10;;;4.78;;
41167;SDS011;26906;45.658;9.272;2023-06-14T11:38:28;8.52;;;4.38;;
41167;SDS011;26906;45.658;9.272;2023-06-14T11:40:58;5.40;;;4.20;;
41167;SDS011;26906;45.658;9.272;2023-06-14T11:43:24;4.45;;;4.05;;
41167;SDS011;26906;45.658;9.272;2023-06-14T11:45:51;8.27;;;5.45;;
41167;SDS011;26906;45.658;9.272;2023-06-14T11:48:18;8.55;;;6.35;;
41167;SDS011;26906;45.658;9.272;2023-06-14T11:50:44;8.10;;;5.32;;
41167;SDS011;26906;45.658;9.272;2023-06-14T11:53:09;6.65;;;5.18;;
41167;SDS011;26906;45.658;9.272;2023-06-14T11:55:38;7.45;;;5.70;;
41167;SDS011;26906;45.658;9.272;2023-06-14T11:58:05;8.35;;;6.38;;
41167;SDS011;26906;45.658;9.272;2023-06-14T12:00:31;6.40;;;5.63;;
41167;SDS011;26906;45.658;9.272;2023-06-14T12:02:57;8.82;;;6.57;;
41167;SDS011;26906;45.658;9.272;2023-06-14T12:05:23;7.07;;;6.25;;
41167;SDS011;26906;45.658;9.272;2023-06-14T12:07:57;8.88;;;6.07;;
41167;SDS011;26906;45.658;9.272;2023-06-14T12:10:25;7.25;;;6.55;;
41167;SDS011;26906;45.658;9.272;2023-06-14T12:12:56;8.40;;;7.10;;
41167;SDS011;26906;45.658;9.272;2023-06-14T12:15:23;6.45;;;5.85;;
41167;SDS011;26906;45.658;9.272;2023-06-14T12:17:49;6.57;;;5.85;;
41167;SDS011;26906;45.658;9.272;2023-06-14T12:20:15;7.28;;;5.13;;
41167;SDS011;26906;45.658;9.272;2023-06-14T12:22:50;9.52;;;6.50;;
41167;SDS011;26906;45.658;9.272;2023-06-14T12:25:23;7.30;;;5.57;;
41167;SDS011;26906;45.658;9.272;2023-06-14T12:27:52;8.23;;;5.13;;
41167;SDS011;26906;45.658;9.272;2023-06-14T12:30:19;8.02;;;5.72;;
41167;SDS011;26906;45.658;9.272;2023-06-14T12:32:44;8.45;;;5.10;;
41167;SDS011;26906;45.658;9.272;2023-06-14T12:35:10;6.70;;;5.22;;
41167;SDS011;26906;45.658;9.272;2023-06-14T12:37:36;7.47;;;5.53;;
41167;SDS011;26906;45.658;9.272;2023-06-14T12:40:02;8.23;;;5.40;;
41167;SDS011;26906;45.658;9.272;2023-06-14T12:42:32;8.75;;;5.63;;
41167;SDS011;26906;45.658;9.272;2023-06-14T12:44:59;7.75;;;4.95;;
41167;SDS011;26906;45.658;9.272;2023-06-14T12:47:25;6.20;;;4.95;;
41167;SDS011;26906;45.658;9.272;2023-06-14T12:49:50;7.35;;;4.43;;
41167;SDS011;26906;45.658;9.272;2023-06-14T12:52:16;6.43;;;4.55;;
41167;SDS011;26906;45.658;9.272;2023-06-14T12:54:42;4.63;;;4.20;;
41167;SDS011;26906;45.658;9.272;2023-06-14T12:57:07;6.40;;;4.68;;
41167;SDS011;26906;45.658;9.272;2023-06-14T12:59:33;7.43;;;5.07;;
41167;SDS011;26906;45.658;9.272;2023-06-14T13:02:12;6.47;;;4.65;;
41167;SDS011;26906;45.658;9.272;2023-06-14T13:04:41;7.60;;;4.80;;
41167;SDS011;26906;45.658;9.272;2023-06-14T13:07:07;5.68;;;4.45;;
41167;SDS011;26906;45.658;9.272;2023-06-14T13:09:33;5.20;;;4.38;;
41167;SDS011;26906;45.658;9.272;2023-06-14T13:11:59;5.15;;;4.65;;
41167;SDS011;26906;45.658;9.272;2023-06-14T13:14:25;6.00;;;3.90;;
41167;SDS011;26906;45.658;9.272;2023-06-14T13:16:51;4.80;;;4.30;;
41167;SDS011;26906;45.658;9.272;2023-06-14T13:19:16;5.00;;;4.50;;
41167;SDS011;26906;45.658;9.272;2023-06-14T13:21:42;6.68;;;4.95;;
41167;SDS011;26906;45.658;9.272;2023-06-14T13:24:08;5.28;;;4.72;;
41167;SDS011;26906;45.658;9.272;2023-06-14T13:26:34;7.03;;;5.38;;
41167;SDS011;26906;45.658;9.272;2023-06-14T13:29:00;5.35;;;3.65;;
41167;SDS011;26906;45.658;9.272;2023-06-14T13:31:25;7.03;;;5.22;;
41167;SDS011;26906;45.658;9.272;2023-06-14T13:33:51;5.97;;;4.75;;
41167;SDS011;26906;45.658;9.272;2023-06-14T13:36:17;5.03;;;4.25;;
41167;SDS011;26906;45.658;9.272;2023-06-14T13:38:43;7.10;;;4.18;;
41167;SDS011;26906;45.658;9.272;2023-06-14T13:41:08;6.35;;;3.83;;
41167;SDS011;26906;45.658;9.272;2023-06-14T13:43:34;6.72;;;3.65;;
41167;SDS011;26906;45.658;9.272;2023-06-14T13:46:00;4.90;;;4.30;;
41167;SDS011;26906;45.658;9.272;2023-06-14T13:48:25;5.57;;;3.55;;
41167;SDS011;26906;45.658;9.272;2023-06-14T13:50:51;4.50;;;3.88;;
41167;SDS011;26906;45.658;9.272;2023-06-14T13:53:17;4.80;;;4.20;;
41167;SDS011;26906;45.658;9.272;2023-06-14T13:55:43;6.72;;;3.97;;
41167;SDS011;26906;45.658;9.272;2023-06-14T13:58:08;4.80;;;4.30;;
41167;SDS011;26906;45.658;9.272;2023-06-14T14:00:34;4.88;;;4.38;;
41167;SDS011;26906;45.658;9.272;2023-06-14T14:03:05;7.07;;;4.25;;
41167;SDS011;26906;45.658;9.272;2023-06-14T14:05:31;5.35;;;4.85;;
41167;SDS011;26906;45.658;9.272;2023-06-14T14:07:58;9.45;;;5.68;;
41167;SDS011;26906;45.658;9.272;2023-06-14T14:10:24;6.30;;;5.70;;
41167;SDS011;26906;45.658;9.272;2023-06-14T14:12:50;6.30;;;5.70;;
41167;SDS011;26906;45.658;9.272;2023-06-14T14:15:16;7.95;;;5.47;;
41167;SDS011;26906;45.658;9.272;2023-06-14T14:17:42;5.25;;;4.78;;
41167;SDS011;26906;45.658;9.272;2023-06-14T14:20:08;6.43;;;4.68;;
41167;SDS011;26906;45.658;9.272;2023-06-14T14:22:36;10.85;;;4.22;;
41167;SDS011;26906;45.658;9.272;2023-06-14T14:25:02;6.03;;;5.38;;
41167;SDS011;26906;45.658;9.272;2023-06-14T14:27:28;5.28;;;4.78;;
41167;SDS011;26906;45.658;9.272;2023-06-14T14:29:53;8.38;;;4.60;;
41167;SDS011;26906;45.658;9.272;2023-06-14T14:32:19;6.88;;;4.72;;
41167;SDS011;26906;45.658;9.272;2023-06-14T14:34:46;6.63;;;4.65;;
41167;SDS011;26906;45.658;9.272;2023-06-14T14:37:12;5.32;;;4.70;;
41167;SDS011;26906;45.658;9.272;2023-06-14T14:39:40;6.90;;;5.03;;
41167;SDS011;26906;45.658;9.272;2023-06-14T14:42:05;6.75;;;4.63;;
41167;SDS011;26906;45.658;9.272;2023-06-14T14:44:32;5.43;;;4.32;;
41167;SDS011;26906;45.658;9.272;2023-06-14T14:46:58;4.82;;;4.32;;
41167;SDS011;26906;45.658;9.272;2023-06-14T14:49:24;6.60;;;4.88;;
41167;SDS011;26906;45.658;9.272;2023-06-14T14:51:49;7.15;;;4.30;;
41167;SDS011;26906;45.658;9.272;2023-06-14T14:54:15;6.32;;;4.78;;
41167;SDS011;26906;45.658;9.272;2023-06-14T14:56:41;6.90;;;4.18;;
41167;SDS011;26906;45.658;9.272;2023-06-14T14:59:06;5.28;;;3.90;;
41167;SDS011;26906;45.658;9.272;2023-06-14T15:01:32;12.20;;;4.97;;
41167;SDS011;26906;45.658;9.272;2023-06-14T15:03:58;6.53;;;5.47;;
41167;SDS011;26906;45.658;9.272;2023-06-14T15:06:23;5.45;;;4.70;;
41167;SDS011;26906;45.658;9.272;2023-06-14T15:08:49;5.25;;;4.78;;
41167;SDS011;26906;45.658;9.272;2023-06-14T15:11:15;4.45;;;4.05;;
41167;SDS011;26906;45.658;9.272;2023-06-14T15:13:41;8.32;;;4.88;;
41167;SDS011;26906;45.658;9.272;2023-06-14T15:16:07;6.25;;;4.68;;
41167;SDS011;26906;45.658;9.272;2023-06-14T15:18:32;4.80;;;4.25;;
41167;SDS011;26906;45.658;9.272;2023-06-14T15:20:58;7.32;;;4.70;;
41167;SDS011;26906;45.658;9.272;2023-06-14T15:23:24;6.55;;;5.93;;
41167;SDS011;26906;45.658;9.272;2023-06-14T15:25:49;7.70;;;5.10;;
41167;SDS011;26906;45.658;9.272;2023-06-14T15:28:16;5.20;;;4.68;;
41167;SDS011;26906;45.658;9.272;2023-06-14T15:30:42;5.55;;;4.88;;
41167;SDS011;26906;45.658;9.272;2023-06-14T15:33:08;6.30;;;4.95;;
41167;SDS011;26906;45.658;9.272;2023-06-14T15:35:34;4.57;;;3.80;;
41167;SDS011;26906;45.658;9.272;2023-06-14T15:37:59;5.97;;;4.63;;
41167;SDS011;26906;45.658;9.272;2023-06-14T15:40:25;7.47;;;4.35;;
41167;SDS011;26906;45.658;9.272;2023-06-14T15:42:51;5.78;;;4.40;;
41167;SDS011;26906;45.658;9.272;2023-06-14T15:45:17;5.15;;;4.40;;
41167;SDS011;26906;45.658;9.272;2023-06-14T15:47:43;4.60;;;4.00;;
41167;SDS011;26906;45.658;9.272;2023-06-14T15:50:08;4.47;;;4.07;;
41167;SDS011;26906;45.658;9.272;2023-06-14T15:52:35;7.47;;;3.70;;
41167;SDS011;26906;45.658;9.272;2023-06-14T15:55:01;4.47;;;4.00;;
41167;SDS011;26906;45.658;9.272;2023-06-14T15:57:27;5.63;;;4.32;;
41167;SDS011;26906;45.658;9.272;2023-06-14T15:59:52;5.07;;;3.95;;
41167;SDS011;26906;45.658;9.272;2023-06-14T16:02:18;5.32;;;4.82;;
41167;SDS011;26906;45.658;9.272;2023-06-14T16:04:43;5.68;;;4.55;;
41167;SDS011;26906;45.658;9.272;2023-06-14T16:07:09;6.28;;;4.50;;
41167;SDS011;26906;45.658;9.272;2023-06-14T16:09:37;5.50;;;4.13;;
41167;SDS011;26906;45.658;9.272;2023-06-14T16:12:03;4.80;;;4.35;;
41167;SDS011;26906;45.658;9.272;2023-06-14T16:14:29;4.70;;;3.72;;
41167;SDS011;26906;45.658;9.272;2023-06-14T16:16:55;5.13;;;4.45;;
41167;SDS011;26906;45.658;9.272;2023-06-14T16:19:20;5.13;;;4.60;;
41167;SDS011;26906;45.658;9.272;2023-06-14T16:21:46;6.18;;;4.00;;
41167;SDS011;26906;45.658;9.272;2023-06-14T16:24:11;7.85;;;4.47;;
41167;SDS011;26906;45.658;9.272;2023-06-14T16:26:39;8.63;;;4.07;;
41167;SDS011;26906;45.658;9.272;2023-06-14T16:29:06;5.65;;;4.10;;
41167;SDS011;26906;45.658;9.272;2023-06-14T16:31:33;6.93;;;3.90;;
41167;SDS011;26906;45.658;9.272;2023-06-14T16:33:58;5.53;;;4.03;;
41167;SDS011;26906;45.658;9.272;2023-06-14T16:36:27;4.65;;;4.05;;
41167;SDS011;26906;45.658;9.272;2023-06-14T16:38:53;5.38;;;4.53;;
41167;SDS011;26906;45.658;9.272;2023-06-14T16:41:18;5.35;;;3.78;;
41167;SDS011;26906;45.658;9.272;2023-06-14T16:43:44;6.30;;;4.05;;
41167;SDS011;26906;45.658;9.272;2023-06-14T16:46:10;4.88;;;3.85;;
41167;SDS011;26906;45.658;9.272;2023-06-14T16:48:36;5.63;;;3.85;;
41167;SDS011;26906;45.658;9.272;2023-06-14T16:51:01;8.23;;;4.30;;
41167;SDS011;26906;45.658;9.272;2023-06-14T16:53:27;7.70;;;4.32;;
41167;SDS011;26906;45.658;9.272;2023-06-14T16:55:54;5.30;;;4.50;;
41167;SDS011;26906;45.658;9.272;2023-06-14T16:58:20;7.68;;;4.97;;
41167;SDS011;26906;45.658;9.272;2023-06-14T17:00:46;5.68;;;4.43;;
41167;SDS011;26906;45.658;9.272;2023-06-14T17:03:11;14.38;;;6.57;;
41167;SDS011;26906;45.658;9.272;2023-06-14T17:05:39;4.97;;;4.47;;
41167;SDS011;26906;45.658;9.272;2023-06-14T17:08:18;11.00;;;6.13;;
41167;SDS011;26906;45.658;9.272;2023-06-14T17:10:45;9.43;;;5.78;;
41167;SDS011;26906;45.658;9.272;2023-06-14T17:13:10;8.57;;;5.32;;
41167;SDS011;26906;45.658;9.272;2023-06-14T17:15:36;4.78;;;4.32;;
41167;SDS011;26906;45.658;9.272;2023-06-14T17:18:02;11.65;;;6.45;;
41167;SDS011;26906;45.658;9.272;2023-06-14T17:20:27;8.25;;;5.63;;
41167;SDS011;26906;45.658;9.272;2023-06-14T17:22:54;6.35;;;5.43;;
41167;SDS011;26906;45.658;9.272;2023-06-14T17:25:21;10.93;;;6.18;;
41167;SDS011;26906;45.658;9.272;2023-06-14T17:27:47;6.00;;;4.80;;
41167;SDS011;26906;45.658;9.272;2023-06-14T17:30:12;6.97;;;4.35;;
41167;SDS011;26906;45.658;9.272;2023-06-14T17:32:39;6.00;;;4.80;;
41167;SDS011;26906;45.658;9.272;2023-06-14T17:35:05;8.27;;;6.80;;
41167;SDS011;26906;45.658;9.272;2023-06-14T17:37:31;9.85;;;5.72;;
41167;SDS011;26906;45.658;9.272;2023-06-14T17:39:57;7.28;;;5.57;;
41167;SDS011;26906;45.658;9.272;2023-06-14T17:42:22;8.55;;;5.85;;
41167;SDS011;26906;45.658;9.272;2023-06-14T17:44:48;12.05;;;6.63;;
41167;SDS011;26906;45.658;9.272;2023-06-14T17:47:20;9.75;;;5.75;;
41167;SDS011;26906;45.658;9.272;2023-06-14T17:49:46;5.95;;;5.22;;
41167;SDS011;26906;45.658;9.272;2023-06-14T17:52:16;8.05;;;5.90;;
41167;SDS011;26906;45.658;9.272;2023-06-14T17:54:42;12.30;;;6.25;;
41167;SDS011;26906;45.658;9.272;2023-06-14T17:57:07;6.22;;;5.40;;
41167;SDS011;26906;45.658;9.272;2023-06-14T17:59:34;6.90;;;5.00;;
41167;SDS011;26906;45.658;9.272;2023-06-14T18:02:00;7.22;;;5.60;;
41167;SDS011;26906;45.658;9.272;2023-06-14T18:04:30;9.18;;;5.55;;
41167;SDS011;26906;45.658;9.272;2023-06-14T18:06:56;6.47;;;4.68;;
41167;SDS011;26906;45.658;9.272;2023-06-14T18:09:22;6.63;;;5.15;;
41167;SDS011;26906;45.658;9.272;2023-06-14T18:11:48;8.00;;;5.03;;
41167;SDS011;26906;45.658;9.272;2023-06-14T18:14:14;7.05;;;5.43;;
41167;SDS011;26906;45.658;9.272;2023-06-14T18:16:40;6.35;;;4.60;;
41167;SDS011;26906;45.658;9.272;2023-06-14T18:19:08;8.48;;;4.75;;
41167;SDS011;26906;45.658;9.272;2023-06-14T18:21:34;8.70;;;5.18;;
41167;SDS011;26906;45.658;9.272;2023-06-14T18:24:00;6.90;;;5.70;;
41167;SDS011;26906;45.658;9.272;2023-06-14T18:26:26;6.88;;;5.20;;
41167;SDS011;26906;45.658;9.272;2023-06-14T18:28:53;9.02;;;5.72;;
41167;SDS011;26906;45.658;9.272;2023-06-14T18:31:19;6.22;;;5.35;;
41167;SDS011;26906;45.658;9.272;2023-06-14T18:33:45;6.53;;;5.18;;
41167;SDS011;26906;45.658;9.272;2023-06-14T18:36:11;8.38;;;4.93;;
41167;SDS011;26906;45.658;9.272;2023-06-14T18:38:37;6.25;;;4.15;;
41167;SDS011;26906;45.658;9.272;2023-06-14T18:41:02;5.13;;;4.40;;
41167;SDS011;26906;45.658;9.272;2023-06-14T18:43:29;6.63;;;5.28;;
41167;SDS011;26906;45.658;9.272;2023-06-14T18:45:58;7.63;;;4.65;;
41167;SDS011;26906;45.658;9.272;2023-06-14T18:48:27;7.00;;;4.68;;
41167;SDS011;26906;45.658;9.272;2023-06-14T18:50:52;6.55;;;4.45;;
41167;SDS011;26906;45.658;9.272;2023-06-14T18:53:18;8.18;;;4.25;;
41167;SDS011;26906;45.658;9.272;2023-06-14T18:55:44;7.30;;;4.93;;
41167;SDS011;26906;45.658;9.272;2023-06-14T18:58:11;10.40;;;4.70;;
41167;SDS011;26906;45.658;9.272;2023-06-14T19:00:38;8.77;;;4.25;;
41167;SDS011;26906;45.658;9.272;2023-06-14T19:03:03;6.22;;;4.22;;
41167;SDS011;26906;45.658;9.272;2023-06-14T19:05:29;7.47;;;4.90;;
41167;SDS011;26906;45.658;9.272;2023-06-14T19:07:55;5.70;;;4.43;;
41167;SDS011;26906;45.658;9.272;2023-06-14T19:10:21;5.93;;;4.20;;
41167;SDS011;26906;45.658;9.272;2023-06-14T19:12:50;6.55;;;4.10;;
41167;SDS011;26906;45.658;9.272;2023-06-14T19:15:16;7.35;;;3.47;;
41167;SDS011;26906;45.658;9.272;2023-06-14T19:17:41;4.13;;;3.30;;
41167;SDS011;26906;45.658;9.272;2023-06-14T19:20:19;5.45;;;3.28;;
41167;SDS011;26906;45.658;9.272;2023-06-14T19:22:45;4.93;;;3.20;;
41167;SDS011;26906;45.658;9.272;2023-06-14T19:25:10;4.13;;;3.20;;
41167;SDS011;26906;45.658;9.272;2023-06-14T19:27:36;3.53;;;3.17;;
41167;SDS011;26906;45.658;9.272;2023-06-14T19:30:03;3.20;;;2.90;;
41167;SDS011;26906;45.658;9.272;2023-06-14T19:32:29;4.32;;;3.20;;
41167;SDS011;26906;45.658;9.272;2023-06-14T19:34:55;4.50;;;3.10;;
41167;SDS011;26906;45.658;9.272;2023-06-14T19:37:20;5.22;;;2.85;;
41167;SDS011;26906;45.658;9.272;2023-06-14T19:39:46;4.43;;;3.20;;
41167;SDS011;26906;45.658;9.272;2023-06-14T19:42:12;4.90;;;3.05;;
41167;SDS011;26906;45.658;9.272;2023-06-14T19:44:37;7.45;;;3.05;;
41167;SDS011;26906;45.658;9.272;2023-06-14T19:47:03;3.58;;;2.90;;
41167;SDS011;26906;45.658;9.272;2023-06-14T19:49:29;5.85;;;2.97;;
41167;SDS011;26906;45.658;9.272;2023-06-14T19:51:54;3.95;;;3.10;;
41167;SDS011;26906;45.658;9.272;2023-06-14T19:54:20;5.28;;;3.35;;
41167;SDS011;26906;45.658;9.272;2023-06-14T19:56:45;4.22;;;2.80;;
41167;SDS011;26906;45.658;9.272;2023-06-14T19:59:11;5.80;;;3.47;;
41167;SDS011;26906;45.658;9.272;2023-06-14T20:01:37;5.82;;;3.30;;
41167;SDS011;26906;45.658;9.272;2023-06-14T20:04:03;5.35;;;3.67;;
41167;SDS011;26906;45.658;9.272;2023-06-14T20:06:28;5.43;;;3.50;;
41167;SDS011;26906;45.658;9.272;2023-06-14T20:08:54;4.20;;;3.13;;
41167;SDS011;26906;45.658;9.272;2023-06-14T20:11:20;5.50;;;3.60;;
41167;SDS011;26906;45.658;9.272;2023-06-14T20:13:45;4.85;;;3.55;;
41167;SDS011;26906;45.658;9.272;2023-06-14T20:16:13;4.45;;;3.78;;
41167;SDS011;26906;45.658;9.272;2023-06-14T20:18:38;5.45;;;3.42;;
41167;SDS011;26906;45.658;9.272;2023-06-14T20:21:04;6.22;;;3.80;;
41167;SDS011;26906;45.658;9.272;2023-06-14T20:23:30;4.82;;;4.05;;
